This is the latest recevied weather packets stored in our database for station/object IQ5QD-13. If no packets are shown the sender has not sent any weather packets the latest 10 day(s).
| Time | Temp. | Humidity | Pressure | Rain* | Wind** | Luminosity | Snow |
|---|---|---|---|---|---|---|---|
| 1777347942 | 7.22° C | 92% | 1011.8 hPa | 0 mm | - | 0 W/m² | - |
| 1777340134 | 8.33° C | 91% | 1012.3 hPa | 0 mm | - | 0 W/m² | - |
| 1777338918 | 8.33° C | 91% | 1012.4 hPa | 0 mm | - | 0 W/m² | - |
| 1777332941 | 9.44° C | 90% | 1013 hPa | 0 mm | - | 0 W/m² | - |
| 1777330518 | 10° C | 90% | 1012.8 hPa | 0 mm | - | 0 W/m² | - |
| 1777329339 | 10.56° C | 89% | 1012.9 hPa | 0 mm | - | 0 W/m² | - |
| 1777328739 | 10° C | 89% | 1012.8 hPa | 0 mm | - | 0 W/m² | - |
| 1777323934 | 11.67° C | 84% | 1012.8 hPa | 0 mm | - | 0 W/m² | - |
| 1777322151 | 11.67° C | 82% | 1012.8 hPa | 0 mm | - | 0 W/m² | - |
| 1777299959 | 25° C | 47% | 1012.1 hPa | 0 mm | - | 531 W/m² | - |
| 1777296365 | 24.44° C | 48% | 1012.5 hPa | 0 mm | - | 591 W/m² | - |
| 1777293944 | 25° C | 49% | 1013.1 hPa | 0 mm | - | 637 W/m² | - |
| 1777292134 | 24.44° C | 46% | 1013.6 hPa | 0 mm | - | 665 W/m² | - |
| 1777284933 | 22.22° C | 54% | 1014.7 hPa | 0 mm | - | 639 W/m² | - |
| 1777283733 | 21.67° C | 56% | 1014.7 hPa | 0 mm | - | 612 W/m² | - |
| 1777278343 | 18.89° C | 61% | 1015.6 hPa | 0 mm | - | 442 W/m² | - |
| 1777271768 | 14.44° C | 75% | 1015.5 hPa | 0 mm | - | 211 W/m² | - |
| 1777266933 | 7.78° C | 91% | 1015.1 hPa | 0 mm | - | 45 W/m² | - |
| 1777266359 | 7.22° C | 91% | 1015.2 hPa | 0 mm | - | 35 W/m² | - |
| 1777265179 | 6.11° C | 92% | 1015.1 hPa | 0 mm | - | 20 W/m² | - |
| 1777260919 | 6.11° C | 91% | 1014.8 hPa | 0 mm | - | 0 W/m² | - |
| 1777260363 | 6.11° C | 91% | 1014.7 hPa | 0 mm | - | 0 W/m² | - |
| 1777258571 | 6.67° C | 91% | 1014.7 hPa | 0 mm | - | 0 W/m² | - |
| 1777257352 | 6.67° C | 91% | 1014.7 hPa | 0 mm | - | 0 W/m² | - |
| 1777245333 | 8.89° C | 90% | 1015.2 hPa | 0 mm | - | 0 W/m² | - |
* Rain latest hour (hover to see other rain measurements)
** Current wind speed in m/s (hover to see current wind gust speed)